Meteo Giornale » Osservazioni meteo Italia » Venezia-Tessera

ore: 15:20 - Osservazioni Meteo Venezia-Tessera
Lat. 45° 30' N Lon. 12° 20' E Alt. 2 metri s.l.m.

poco_nuvoloso Europe/Rome

27 °C

Poco Nuvoloso

Temp. 24 Ore

22 °C

29 °C

Est/Nord-Est

18.5 Km/h

Dew point 16 °C

Umidità 50 %

Visibilità  10 Km

Il sole sorge alle ore 05:22

Il sole tramonta alle ore 21:05

Data e Ora Cielo e Fenomeni T °C DP °C Um. % Pres. hPa Vis. km Vento km/h
Oggi h: 15:20 poco_nuvoloso Poco Nuvoloso 27 16 50 1010 10 E/NE 18.5
Oggi h: 14:50 sereno Sereno 27 15 47 1010 10 NE 22.2
Oggi h: 14:20 nuvoloso Nuvoloso 27 15 47 1010 10 NE 24
Oggi h: 13:50 poco_nuvoloso Poco Nuvoloso 27 16 50 1010 10 NE 25.9
Oggi h: 13:20 poco_nuvoloso Poco Nuvoloso 25 18 65 1010 10 NE 20.3
Oggi h: 12:50 nuvoloso Nuvoloso 24 16 60 1009 10 NE 24
Oggi h: 12:20 molto_nuvoloso Molto Nuvoloso 24 18 69 1010 10 N 18.5
Oggi h: 11:50 coperto_pioggia Pioggia Debole 23 16 64 1010 10 N/NE 24
Oggi h: 11:20 coperto_pioggia Pioggia Debole Rovescio nelle Vicinanze 23 19 78 1011 10 N 22.2
Oggi h: 10:50 nuvoloso_piovaschi Debole Rovescio di Pioggia Temporale nelle Vicinanze 25 19 69 1011 10 O/NO 16.7
Oggi h: 10:20 nuvoloso_temporali Temporale nelle Vicinanze 26 19 65 1010 10 N 9.3
Oggi h: 09:50 nuvoloso Nuvoloso 26 18 61 1010 10 NE 9.3
Oggi h: 09:20 poco_nuvoloso Poco Nuvoloso 25 18 65 1010 10 N/NE 13
Oggi h: 08:50 poco_nuvoloso Poco Nuvoloso 24 18 69 1010 10 N/NE 13
Oggi h: 08:20 nuvoloso Nuvoloso 24 18 69 1010 10 N/NE 11.1
Oggi h: 07:50 sereno Sereno 24 18 69 1010 10 NE 14.8
Oggi h: 07:20 poco_nuvoloso Poco Nuvoloso 23 17 68 1010 10 N/NE 14.8
Oggi h: 06:50 sereno Sereno 22 17 73 1010 10 N/NE 11.1
Oggi h: 06:20 sereno Sereno 22 17 73 1010 10 N/NE 9.3
Oggi h: 05:50 nuvoloso Nuvoloso 23 17 68 1010 10 N/NE 11.1
Oggi h: 05:20 nuvoloso Nuvoloso 22 17 73 1010 10 N 13
Oggi h: 04:50 sereno Sereno 22 17 73 1010 10 N/NE 9.3
Oggi h: 04:20 sereno Sereno 23 16 64 1010 10 N/NE 9.3
Oggi h: 03:50 sereno Sereno 23 16 64 1010 10 N 14.8
Oggi h: 03:20 sereno Sereno 22 16 68 1010 10 N 13
Oggi h: 02:50 sereno Sereno 23 17 68 1010 10 N 14.8
Oggi h: 02:20 sereno Sereno 22 18 78 1011 10 N/NO 14.8
Oggi h: 01:50 sereno Sereno 22 19 83 1011 10 N 5.5
Oggi h: 01:20 sereno Sereno 23 19 78 1011 10 E 7.4
Oggi h: 00:50 sereno Sereno 26 18 61 1011 10 E/SE 9.3
Oggi h: 00:20 sereno Sereno 26 18 61 1011 10 E/SE 14.8
Ieri h: 23:50 sereno Sereno 26 17 57 1011 10 E 13
Ieri h: 23:20 sereno Sereno 26 18 61 1011 10 E 11.1
Ieri h: 22:50 sereno Sereno 27 18 57 1011 10 E/SE 9.3
Ieri h: 22:20 sereno Sereno 27 17 54 1011 10 E/SE 9.3
Ieri h: 21:50 sereno Sereno 27 17 54 1011 10 E/SE 9.3
Ieri h: 21:20 sereno Sereno 27 17 54 1011 10 E 7.4
Ieri h: 20:50 sereno Sereno 27 17 54 1011 10 SE 9.3
Ieri h: 20:20 sereno Sereno 27 17 54 1011 10 SE 9.3
Ieri h: 19:50 sereno Sereno 27 15 47 1012 10 SE 7.4
Ieri h: 19:20 sereno Sereno 28 16 48 1012 10 S/SE 11.1
Ieri h: 18:50 sereno Sereno 28 17 51 1011 10 SE 11.1
Ieri h: 18:20 sereno Sereno 28 16 48 1011 10 SE 11.1
Ieri h: 17:50 sereno Sereno 29 13 37 1011 10 S/SE 13
Ieri h: 17:20 sereno Sereno 28 16 48 1012 10 SE 13
Ieri h: 16:50 sereno Sereno 28 19 58 1012 10 SE 11.1
Ieri h: 16:20 sereno Sereno 28 18 54 1012 10 SE 13
Ieri h: 15:50 sereno Sereno 29 16 45 1012 10 SE 11.1